sensor_id;sensor_type;location;lat;lon;timestamp;pressure;altitude;pressure_sealevel;temperature;humidity
65054;BME280;51639;47.828;35.038;2023-04-28T00:10:12;99570.41;;;15.34;100.00
65054;BME280;51639;47.828;35.038;2023-04-28T00:25:14;99576.03;;;15.31;100.00
65054;BME280;51639;47.828;35.038;2023-04-28T00:40:16;99581.66;;;15.27;100.00
65054;BME280;51639;47.828;35.038;2023-04-28T00:55:18;99603.31;;;15.40;100.00
65054;BME280;51639;47.828;35.038;2023-04-28T01:10:22;99625.16;;;15.49;100.00
65054;BME280;51639;47.828;35.038;2023-04-28T01:25:24;99621.75;;;15.30;100.00
65054;BME280;51639;47.828;35.038;2023-04-28T01:40:26;99621.09;;;15.35;100.00
65054;BME280;51639;47.828;35.038;2023-04-28T01:55:28;99612.88;;;15.45;100.00
65054;BME280;51639;47.828;35.038;2023-04-28T02:10:30;99591.94;;;15.75;100.00
65054;BME280;51639;47.828;35.038;2023-04-28T02:25:33;99577.47;;;15.98;100.00
65054;BME280;51639;47.828;35.038;2023-04-28T02:40:35;99567.28;;;15.98;100.00
65054;BME280;51639;47.828;35.038;2023-04-28T02:55:37;99540.59;;;15.84;100.00
65054;BME280;51639;47.828;35.038;2023-04-28T03:10:39;99542.03;;;15.56;100.00
65054;BME280;51639;47.828;35.038;2023-04-28T03:25:41;99531.69;;;15.27;100.00
65054;BME280;51639;47.828;35.038;2023-04-28T03:40:43;99559.63;;;15.31;100.00
65054;BME280;51639;47.828;35.038;2023-04-28T03:55:45;99569.22;;;15.26;100.00
65054;BME280;51639;47.828;35.038;2023-04-28T04:10:47;99584.16;;;15.40;100.00
65054;BME280;51639;47.828;35.038;2023-04-28T04:25:49;99601.41;;;15.22;100.00
65054;BME280;51639;47.828;35.038;2023-04-28T04:40:51;99594.31;;;15.58;100.00
65054;BME280;51639;47.828;35.038;2023-04-28T04:55:53;99611.66;;;15.79;100.00
65054;BME280;51639;47.828;35.038;2023-04-28T05:10:55;99644.88;;;15.95;100.00
65054;BME280;51639;47.828;35.038;2023-04-28T05:25:57;99651.22;;;16.01;100.00
65054;BME280;51639;47.828;35.038;2023-04-28T05:41:05;99656.03;;;16.07;100.00
65054;BME280;51639;47.828;35.038;2023-04-28T05:56:20;99670.00;;;16.09;100.00
65054;BME280;51639;47.828;35.038;2023-04-28T06:11:22;99677.38;;;16.02;100.00
65054;BME280;51639;47.828;35.038;2023-04-28T06:26:23;99687.03;;;16.13;100.00
65054;BME280;51639;47.828;35.038;2023-04-28T06:41:26;99688.13;;;16.30;100.00
65054;BME280;51639;47.828;35.038;2023-04-28T06:56:29;99672.94;;;16.29;100.00
65054;BME280;51639;47.828;35.038;2023-04-28T07:11:31;99660.69;;;16.39;100.00
65054;BME280;51639;47.828;35.038;2023-04-28T07:26:34;99653.50;;;16.65;100.00
65054;BME280;51639;47.828;35.038;2023-04-28T07:41:37;99659.94;;;16.92;100.00
65054;BME280;51639;47.828;35.038;2023-04-28T07:56:39;99647.28;;;16.94;100.00
65054;BME280;51639;47.828;35.038;2023-04-28T08:11:41;99644.72;;;17.20;100.00
65054;BME280;51639;47.828;35.038;2023-04-28T08:26:44;99627.09;;;17.42;100.00
65054;BME280;51639;47.828;35.038;2023-04-28T08:41:46;99627.88;;;17.27;100.00
65054;BME280;51639;47.828;35.038;2023-04-28T08:56:48;99623.06;;;16.78;100.00
65054;BME280;51639;47.828;35.038;2023-04-28T09:12:01;99622.22;;;16.87;100.00
65054;BME280;51639;47.828;35.038;2023-04-28T09:27:07;99617.59;;;17.22;100.00
65054;BME280;51639;47.828;35.038;2023-04-28T09:42:34;99620.41;;;17.63;100.00
65054;BME280;51639;47.828;35.038;2023-04-28T09:57:38;99621.00;;;17.67;100.00
65054;BME280;51639;47.828;35.038;2023-04-28T10:12:40;99623.16;;;17.63;100.00
65054;BME280;51639;47.828;35.038;2023-04-28T10:27:43;99619.50;;;17.51;100.00
65054;BME280;51639;47.828;35.038;2023-04-28T10:42:54;99607.72;;;17.30;100.00
65054;BME280;51639;47.828;35.038;2023-04-28T11:13:29;99588.00;;;16.67;100.00
65054;BME280;51639;47.828;35.038;2023-04-28T11:28:35;99567.38;;;16.57;100.00
65054;BME280;51639;47.828;35.038;2023-04-28T11:43:38;99553.19;;;16.29;100.00
65054;BME280;51639;47.828;35.038;2023-04-28T11:59:11;99554.19;;;16.17;100.00
65054;BME280;51639;47.828;35.038;2023-04-28T12:14:13;99544.00;;;16.18;100.00
65054;BME280;51639;47.828;35.038;2023-04-28T12:29:40;99545.56;;;15.95;100.00
65054;BME280;51639;47.828;35.038;2023-04-28T12:44:53;99558.06;;;16.11;100.00
65054;BME280;51639;47.828;35.038;2023-04-28T12:59:57;99540.50;;;16.02;100.00
65054;BME280;51639;47.828;35.038;2023-04-28T13:15:04;99541.06;;;15.83;100.00
65054;BME280;51639;47.828;35.038;2023-04-28T13:30:40;99541.13;;;15.59;100.00
65054;BME280;51639;47.828;35.038;2023-04-28T13:45:44;99563.72;;;15.59;100.00
65054;BME280;51639;47.828;35.038;2023-04-28T14:00:47;99564.22;;;15.49;100.00
65054;BME280;51639;47.828;35.038;2023-04-28T14:15:53;99546.63;;;15.41;100.00
65054;BME280;51639;47.828;35.038;2023-04-28T14:31:04;99564.34;;;15.30;100.00
65054;BME280;51639;47.828;35.038;2023-04-28T14:46:10;99561.31;;;15.28;100.00
65054;BME280;51639;47.828;35.038;2023-04-28T15:01:12;99570.75;;;15.18;100.00
65054;BME280;51639;47.828;35.038;2023-04-28T15:16:14;99581.59;;;15.04;100.00
65054;BME280;51639;47.828;35.038;2023-04-28T15:31:16;99574.22;;;14.86;100.00
65054;BME280;51639;47.828;35.038;2023-04-28T15:46:19;99587.03;;;14.61;100.00
65054;BME280;51639;47.828;35.038;2023-04-28T16:01:22;99581.25;;;14.59;100.00
65054;BME280;51639;47.828;35.038;2023-04-28T16:16:26;99581.88;;;14.54;100.00
65054;BME280;51639;47.828;35.038;2023-04-28T16:31:30;99587.19;;;14.40;100.00
65054;BME280;51639;47.828;35.038;2023-04-28T16:46:33;99605.84;;;14.41;100.00
65054;BME280;51639;47.828;35.038;2023-04-28T17:01:35;99632.84;;;14.48;100.00
65054;BME280;51639;47.828;35.038;2023-04-28T17:16:37;99640.41;;;14.35;100.00
65054;BME280;51639;47.828;35.038;2023-04-28T17:31:39;99651.91;;;14.21;100.00
65054;BME280;51639;47.828;35.038;2023-04-28T17:46:41;99668.28;;;13.93;100.00
65054;BME280;51639;47.828;35.038;2023-04-28T18:01:43;99674.63;;;13.99;100.00
65054;BME280;51639;47.828;35.038;2023-04-28T18:16:45;99675.03;;;13.80;100.00
65054;BME280;51639;47.828;35.038;2023-04-28T18:31:48;99663.00;;;13.59;100.00
65054;BME280;51639;47.828;35.038;2023-04-28T18:46:50;99676.59;;;13.50;100.00
65054;BME280;51639;47.828;35.038;2023-04-28T19:01:52;99666.09;;;13.39;100.00
65054;BME280;51639;47.828;35.038;2023-04-28T19:16:54;99662.31;;;13.37;100.00
65054;BME280;51639;47.828;35.038;2023-04-28T19:31:56;99680.69;;;13.23;100.00
65054;BME280;51639;47.828;35.038;2023-04-28T19:47:01;99682.72;;;13.10;100.00
65054;BME280;51639;47.828;35.038;2023-04-28T20:02:05;99677.94;;;12.71;100.00
65054;BME280;51639;47.828;35.038;2023-04-28T20:17:08;99681.84;;;12.70;100.00
65054;BME280;51639;47.828;35.038;2023-04-28T20:32:11;99696.22;;;12.70;100.00
65054;BME280;51639;47.828;35.038;2023-04-28T20:47:14;99687.84;;;12.64;100.00
65054;BME280;51639;47.828;35.038;2023-04-28T21:02:16;99703.63;;;12.70;100.00
65054;BME280;51639;47.828;35.038;2023-04-28T21:17:18;99690.34;;;12.72;100.00
65054;BME280;51639;47.828;35.038;2023-04-28T21:32:20;99690.59;;;12.52;100.00
65054;BME280;51639;47.828;35.038;2023-04-28T21:47:22;99692.13;;;12.53;100.00
65054;BME280;51639;47.828;35.038;2023-04-28T22:02:24;99688.91;;;12.45;100.00
65054;BME280;51639;47.828;35.038;2023-04-28T22:17:27;99693.72;;;12.41;100.00
65054;BME280;51639;47.828;35.038;2023-04-28T22:32:29;99681.81;;;12.48;100.00
65054;BME280;51639;47.828;35.038;2023-04-28T22:47:32;99657.75;;;12.46;100.00
65054;BME280;51639;47.828;35.038;2023-04-28T23:02:34;99659.19;;;12.38;100.00
65054;BME280;51639;47.828;35.038;2023-04-28T23:17:37;99666.06;;;12.30;100.00
65054;BME280;51639;47.828;35.038;2023-04-28T23:32:39;99674.25;;;12.30;100.00
65054;BME280;51639;47.828;35.038;2023-04-28T23:47:43;99678.66;;;12.49;100.00
